Flight Track Log - Related Links

Times and Time Zones

All times are in EDT time to prevent confusion due to time zone crossing. See the ASQ5685 flight status page for this flight to view local times or setup timezone preferences in your user account.

Time Position Orientation Groundspeed Altitude Reporting Facility
EDT Latitude Longitude Course Direction KTS MPH feet Rate Location/Type
Sat 09:57:42 33.6333 -84.3833 53° Northeast 172 198 2,300  Level Atlanta TRACON
Sat 09:58:36 33.6333 -84.3167 90° East 248 285 3,900 2,250 Climbing Atlanta TRACON
Sat 09:59:42 33.6333 -84.2167 90° East 275 316 6,800 2,571 Climbing Atlanta TRACON
Sat 10:00:00 33.7517 -83.9752 54° Northeast  Level FlightAware
Sat 10:00:56 33.6356 -84.1036 89° East 289 333 9,900  Level Atlanta Center
Sat 10:01:00 33.8087 -83.8802 54° Northeast  Level FlightAware
Sat 10:01:56 33.6919 -84.0239 50° Northeast 284 327 11,100  Level Atlanta Center
Sat 10:02:00 33.8656 -83.7850 54° Northeast  Level FlightAware
Sat 10:02:56 33.7586 -83.9389 47° Northeast 312 359 12,400  Level Atlanta Center
Sat 10:03:00 33.9293 -83.6964 53° Northeast  Level FlightAware
Sat 10:03:56 33.8275 -83.8489 47° Northeast 347 399 14,100  Level Atlanta Center
Sat 10:04:56 33.8983 -83.7586 47° Northeast 364 419 15,800 1,600 Climbing Atlanta Center
Sat 10:05:56 33.9647 -83.6606 51° Northeast 370 426 17,300 1,200 Climbing Atlanta Center
Sat 10:06:56 34.0292 -83.5550 54° Northeast 380 437 18,200 1,000 Climbing Atlanta Center
Sat 10:07:56 34.0956 -83.4517 52° Northeast 387 445 19,300 1,050 Climbing Atlanta Center
Sat 10:08:56 34.1617 -83.3433 54° Northeast 394 453 20,300 1,050 Climbing Atlanta Center
Sat 10:09:56 34.2300 -83.2347 53° Northeast 394 453 21,400 1,050 Climbing Atlanta Center
Sat 10:10:56 34.2939 -83.1361 52° Northeast 400 460 22,400 1,050 Climbing Atlanta Center
Sat 10:11:56 34.3578 -83.0247 55° Northeast 400 460 23,500 900 Climbing Atlanta Center
Sat 10:12:56 34.4278 -82.9156 52° Northeast 405 466 24,200 600 Climbing Atlanta Center
Sat 10:13:56 34.4956 -82.8039 54° Northeast 412 474 24,700 500 Climbing Atlanta Center
Sat 10:14:56 34.5717 -82.6917 51° Northeast 420 483 25,200 500 Climbing Atlanta Center
Sat 10:15:56 34.6411 -82.5744 54° Northeast 425 489 25,700 650 Climbing Atlanta Center
Sat 10:16:56 34.7208 -82.4442 53° Northeast 425 489 26,500 1,150 Climbing Atlanta Center
Sat 10:17:56 34.7925 -82.3289 53° Northeast 425 489 28,000 1,050 Climbing Atlanta Center
Sat 10:18:56 34.8597 -82.2161 54° Northeast 419 482 28,600 500 Climbing Atlanta Center
Sat 10:19:56 34.9331 -82.1031 52° Northeast 414 476 29,000 500 Climbing Atlanta Center
Sat 10:20:56 35.0022 -81.9875 54° Northeast 420 483 29,600 550 Climbing Atlanta Center
Sat 10:21:56 35.0689 -81.8664 56° Northeast 420 483 30,100 500 Climbing Atlanta Center
Sat 10:22:56 35.1333 -81.7428 57° Northeast 425 489 30,600 450 Climbing Atlanta Center
Sat 10:23:56 35.1978 -81.6217 57° Northeast 425 489 31,000 200 Climbing Atlanta Center
Sat 10:24:56 35.2622 -81.4953 58° Northeast 425 489 31,000  Level Atlanta Center
Sat 10:25:56 35.3283 -81.3683 57° Northeast 430 495 31,000  Level Atlanta Center
Sat 10:26:56 35.3842 -81.2569 58° Northeast 430 495 31,000  Level Atlanta Center
Sat 10:27:56 35.4561 -81.1169 58° Northeast 436 502 31,000  Level Atlanta Center
Sat 10:28:56 35.5219 -80.9919 57° Northeast 436 502 31,000  Level Atlanta Center
Sat 10:29:56 35.5875 -80.8697 57° Northeast 436 502 31,000  Level Atlanta Center
Sat 10:31:56 35.7072 -80.6389 57° Northeast 421 484 31,000  Level Washington Center
Sat 10:32:54 35.7711 -80.5125 58° Northeast 421 484 31,000  Level Washington Center
Sat 10:33:54 35.8347 -80.3858 58° Northeast 426 490 31,000  Level Washington Center
Sat 10:34:54 35.9069 -80.2492 57° Northeast 426 490 31,000  Level Washington Center
Sat 10:35:55 35.9681 -80.1242 59° Northeast 432 497 31,000  Level Washington Center
Sat 10:36:56 36.0283 -80.0147 56° Northeast 432 497 31,000  Level Washington Center
Sat 10:37:56 36.0956 -79.8925 56° Northeast 425 489 31,000  Level Washington Center
Sat 10:38:54 36.1714 -79.7553 56° Northeast 431 496 31,000  Level Washington Center
Sat 10:39:55 36.2422 -79.6353 54° Northeast 439 505 31,000 -148 Level Washington Center
Sat 10:40:56 36.3089 -79.5100 57° Northeast 433 498 30,700 -694 Descending Washington Center
Sat 10:41:56 36.3772 -79.3947 54° Northeast 440 506 29,600 -1,220 Descending Washington Center
Sat 10:42:54 36.4550 -79.2461 57° Northeast 452 520 28,300 -1,119 Descending Washington Center
Sat 10:43:54 36.5300 -79.1125 55° Northeast 475 547 27,400 -1,190 Descending Washington Center
Sat 10:44:55 36.6044 -78.9867 54° Northeast 481 554 25,900 -1,180 Descending Washington Center
Sat 10:45:56 36.6792 -78.8500 56° Northeast 481 554 25,000 -454 Descending Washington Center
Sat 10:46:54 36.7606 -78.6978 56° Northeast 476 548 25,000  Level Washington Center
Sat 10:47:54 36.8325 -78.5708 55° Northeast 466 536 25,000  Level Washington Center
Sat 10:48:55 36.8958 -78.4564 55° Northeast 458 527 25,000 -397 Level Washington Center
Sat 10:49:55 36.9839 -78.3453 45° Northeast 448 516 24,200 -992 Descending Washington Center
Sat 10:50:56 37.0800 -78.2550 37° Northeast 437 503 23,000 -1,091 Descending Washington Center
Sat 10:51:56 37.1714 -78.1697 37° Northeast 425 489 22,000 -496 Descending Washington Center
Sat 10:52:57 37.2608 -78.0867 36° Northeast 413 475 22,000  Level Washington Center
Sat 10:53:55 37.3544 -77.9981 37° Northeast 413 475 22,000  Level Washington Center
Sat 10:54:56 37.4481 -77.9069 38° Northeast 418 481 22,000  Level Washington Center
Sat 10:55:53 37.5456 -77.8208 35° Northeast 418 481 22,000 -712 Level Washington Center
Sat 10:56:54 37.6511 -77.7558 26° Northeast 418 481 20,600 -1,770 Descending Washington Center
Sat 10:57:55 37.7522 -77.6983 24° Northeast 405 466 18,400 -1,869 Descending Washington Center
Sat 10:58:56 37.8469 -77.6431 25° Northeast 385 443 16,800 -1,765 Descending Washington Center
Sat 10:59:54 37.9419 -77.5878 25° Northeast 378 435 14,900 -2,034 Descending Washington Center
Sat 11:00:54 38.0428 -77.5297 24° Northeast 373 429 12,800 -1,850 Descending Washington Center
Sat 11:01:54 38.1250 -77.4817 25° Northeast 344 396 11,200 -1,388 Descending Washington Center
Sat 11:02:55 38.2008 -77.4361 25° Northeast 325 374 10,000 -590 Descending Washington Center
Sat 11:03:56 38.2786 -77.3903 25° Northeast 305 351 10,000  Level Washington Center
Sat 11:04:54 38.3564 -77.3578 18° North 300 345 10,000 -559 Level Washington Center
Sat 11:05:54 38.4397 -77.3597 359° North 294 338 8,900 -1,636 Descending Washington Center
Sat 11:06:55 38.5189 -77.3642 357° North 289 333 6,700 -1,934 Descending Washington Center
Sat 11:07:55 38.5958 -77.3689 357° North 289 333 5,000 -1,140 Descending Washington Center
Sat 11:08:56 38.6772 -77.3653 North 289 333 4,400 -492 Descending Washington Center
Sat 11:09:57 38.7400 -77.3617 North 289 333 4,000 -203 Descending Washington Center
Sat 11:10:54 38.8358 -77.3558 North 289 333 4,000  Level Washington Center
Sat 11:11:55 38.9047 -77.3547 North 277 319 4,000  Level Washington Center
Sat 11:13:11 39.0000 -77.3500 North 245 282 4,000  Level Potomac TRACON
Sat 11:14:06 39.0500 -77.3500 360° North 245 282 4,000  Level Potomac TRACON
Sat 11:15:06 39.1167 -77.3500 360° North 221 254 4,000 -300 Level Potomac TRACON
Sat 11:16:06 39.1833 -77.3500 360° North 218 251 3,400 -500 Descending Potomac TRACON
Sat 11:17:06 39.2167 -77.3667 339° North 214 246 3,000 -198 Descending Potomac TRACON
Sat 11:18:07 39.1833 -77.4333 237° Southwest 197 227 3,000  Level Potomac TRACON
Sat 11:19:01 39.1500 -77.4333 180° South 185 213 3,000  Level Potomac TRACON

Login

Don't have an account? Register now (free) for customized features, flight alerts, and more!